createdAt,value
2022-09-18T00:01:32.313Z,16.00
2022-09-18T00:04:02.232Z,17.25
2022-09-18T00:06:32.268Z,15.32
2022-09-18T00:09:00.862Z,17.10
2022-09-18T00:11:30.486Z,17.83
2022-09-18T00:13:57.665Z,18.98
2022-09-18T00:16:26.106Z,12.98
2022-09-18T00:18:53.611Z,13.88
2022-09-18T00:21:24.638Z,12.85
2022-09-18T00:23:54.987Z,13.95
2022-09-18T00:26:22.367Z,13.63
2022-09-18T00:28:49.330Z,13.68
2022-09-18T00:31:20.123Z,13.52
2022-09-18T00:33:47.500Z,14.80
2022-09-18T00:36:16.916Z,15.40
2022-09-18T00:38:44.929Z,14.82
2022-09-18T00:41:16.416Z,18.80
2022-09-18T00:43:44.032Z,15.82
2022-09-18T00:46:29.747Z,14.00
2022-09-18T00:49:13.178Z,13.98
2022-09-18T00:51:41.868Z,15.48
2022-09-18T00:54:21.046Z,15.48
2022-09-18T00:56:52.390Z,16.00
2022-09-18T00:59:25.452Z,15.07
2022-09-18T01:01:53.673Z,15.18
2022-09-18T01:04:20.862Z,19.00
2022-09-18T01:06:57.102Z,21.17
2022-09-18T01:09:42.485Z,21.77
2022-09-18T01:12:18.992Z,18.10
2022-09-18T01:15:01.059Z,14.77
2022-09-18T01:18:02.718Z,19.85
2022-09-18T01:21:08.634Z,23.02
2022-09-18T01:24:20.229Z,18.52
2022-09-18T01:26:55.570Z,20.40
2022-09-18T01:29:47.105Z,17.95
2022-09-18T01:32:22.148Z,14.30
2022-09-18T01:35:39.466Z,14.50
2022-09-18T01:38:26.776Z,18.77
2022-09-18T01:41:00.240Z,17.60
2022-09-18T01:43:30.170Z,13.85
2022-09-18T01:46:03.938Z,13.80
2022-09-18T01:48:48.576Z,13.32
2022-09-18T01:51:52.389Z,14.95
2022-09-18T01:54:24.270Z,13.75
2022-09-18T01:57:04.455Z,17.98
2022-09-18T01:59:39.262Z,16.80
2022-09-18T02:02:19.161Z,22.40
2022-09-18T02:04:49.465Z,14.95
2022-09-18T02:07:24.116Z,16.92
2022-09-18T02:09:51.817Z,16.35
2022-09-18T02:12:23.170Z,14.63
2022-09-18T02:14:57.167Z,17.88
2022-09-18T02:17:42.881Z,16.15
2022-09-18T02:20:20.345Z,17.23
2022-09-18T02:22:51.047Z,19.58
2022-09-18T02:25:24.739Z,14.80
2022-09-18T02:27:53.616Z,14.23
2022-09-18T02:30:21.939Z,13.35
2022-09-18T02:32:54.038Z,16.20
2022-09-18T02:35:23.189Z,15.65
2022-09-18T02:37:59.470Z,16.88
2022-09-18T02:40:52.006Z,12.73
2022-09-18T02:43:36.418Z,17.90
2022-09-18T02:46:10.036Z,12.60
2022-09-18T02:49:10.041Z,13.20
2022-09-18T02:51:52.812Z,13.63
2022-09-18T02:54:25.433Z,13.25
2022-09-18T02:57:15.273Z,16.58
2022-09-18T02:59:50.832Z,18.15
2022-09-18T03:02:21.098Z,10.40
2022-09-18T03:04:49.009Z,16.33
2022-09-18T03:07:27.528Z,10.32
2022-09-18T03:09:56.054Z,13.68
2022-09-18T03:12:23.006Z,14.48
2022-09-18T03:14:50.166Z,14.07
2022-09-18T03:17:17.487Z,12.30
2022-09-18T03:19:45.894Z,10.85
2022-09-18T03:22:14.139Z,14.15
2022-09-18T03:24:42.457Z,11.50
2022-09-18T03:27:10.580Z,9.40
2022-09-18T03:29:38.167Z,16.00
2022-09-18T03:32:05.254Z,9.95
2022-09-18T03:34:40.888Z,10.52
2022-09-18T03:37:08.220Z,12.10
2022-09-18T03:39:35.158Z,12.88
2022-09-18T03:42:04.503Z,13.60
2022-09-18T03:44:31.846Z,14.98
2022-09-18T03:47:03.543Z,15.15
2022-09-18T03:49:31.505Z,14.73
2022-09-18T03:51:58.543Z,19.50
2022-09-18T03:54:29.844Z,13.32
2022-09-18T03:57:19.812Z,16.25
2022-09-18T04:02:40.368Z,13.47
2022-09-18T04:05:36.582Z,16.45
2022-09-18T04:08:16.861Z,18.60
2022-09-18T04:10:59.917Z,17.67
2022-09-18T04:13:27.717Z,15.05
2022-09-18T04:16:01.711Z,14.82
2022-09-18T04:18:29.671Z,16.88
2022-09-18T04:20:57.900Z,10.75
2022-09-18T04:23:25.032Z,14.07
2022-09-18T04:25:52.489Z,21.23
2022-09-18T04:28:20.261Z,13.85
2022-09-18T04:30:48.684Z,15.98
2022-09-18T04:33:16.571Z,12.85
2022-09-18T04:35:43.743Z,12.65
2022-09-18T04:38:11.299Z,15.93
2022-09-18T04:40:38.493Z,14.65
2022-09-18T04:43:05.652Z,17.90
2022-09-18T04:45:32.767Z,16.23
2022-09-18T04:48:00.078Z,16.55
2022-09-18T04:50:28.743Z,8.75
2022-09-18T04:53:32.113Z,14.73
2022-09-18T04:55:59.194Z,12.35
2022-09-18T04:58:27.238Z,9.50
2022-09-18T05:01:00.493Z,15.05
2022-09-18T05:03:27.996Z,15.50
2022-09-18T05:05:56.219Z,20.40
2022-09-18T05:08:23.650Z,16.02
2022-09-18T05:10:51.263Z,12.82
2022-09-18T05:13:18.546Z,14.07
2022-09-18T05:16:07.233Z,12.00
2022-09-18T05:18:34.854Z,17.63
2022-09-18T05:21:04.883Z,12.10
2022-09-18T05:23:37.706Z,14.02
2022-09-18T05:26:04.817Z,11.75
2022-09-18T05:28:32.327Z,14.75
2022-09-18T05:31:01.122Z,14.73
2022-09-18T05:33:34.897Z,12.35
2022-09-18T05:36:05.590Z,10.70
2022-09-18T05:38:33.629Z,16.63
2022-09-18T05:41:03.149Z,12.95
2022-09-18T05:43:30.645Z,10.35
2022-09-18T05:45:57.949Z,15.00
2022-09-18T05:48:38.642Z,11.45
2022-09-18T05:51:07.177Z,13.15
2022-09-18T05:53:34.214Z,10.60
2022-09-18T05:56:10.239Z,11.35
2022-09-18T05:58:37.489Z,12.57
2022-09-18T06:01:04.785Z,12.82
2022-09-18T06:03:52.232Z,10.23
2022-09-18T06:06:21.198Z,9.18
2022-09-18T06:08:49.417Z,12.82
2022-09-18T06:11:16.652Z,14.02
2022-09-18T06:13:44.509Z,12.65
2022-09-18T06:16:13.021Z,15.02
2022-09-18T06:18:54.102Z,16.75
2022-09-18T06:21:22.287Z,14.02
2022-09-18T06:23:49.439Z,16.10
2022-09-18T06:26:28.616Z,11.32
2022-09-18T06:28:55.616Z,11.32
2022-09-18T06:31:22.673Z,13.20
2022-09-18T06:33:57.664Z,15.60
2022-09-18T06:36:24.675Z,12.48
2022-09-18T06:39:01.236Z,12.63
2022-09-18T06:41:28.539Z,12.52
2022-09-18T06:43:55.994Z,12.30
2022-09-18T06:46:32.029Z,11.20
2022-09-18T06:49:08.324Z,9.55
2022-09-18T06:51:36.528Z,13.15
2022-09-18T06:54:10.866Z,11.02
2022-09-18T06:56:39.140Z,11.18
2022-09-18T06:59:09.173Z,8.63
2022-09-18T07:01:37.686Z,13.38
2022-09-18T07:04:25.189Z,12.27
2022-09-18T07:06:52.313Z,13.60
2022-09-18T07:09:19.444Z,11.00
2022-09-18T07:12:01.985Z,11.70
2022-09-18T07:14:39.769Z,10.80
2022-09-18T07:17:15.464Z,11.85
2022-09-18T07:19:46.529Z,7.43
2022-09-18T07:22:15.956Z,8.55
2022-09-18T07:24:46.549Z,6.10
2022-09-18T07:27:14.991Z,11.18
2022-09-18T07:29:43.872Z,6.25
2022-09-18T07:32:14.295Z,9.00
2022-09-18T07:34:44.616Z,8.32
2022-09-18T07:37:14.885Z,10.32
2022-09-18T07:39:50.138Z,12.48
2022-09-18T07:42:35.865Z,11.73
2022-09-18T07:45:03.851Z,9.80
2022-09-18T07:47:31.342Z,10.38
2022-09-18T07:50:01.624Z,12.38
2022-09-18T07:52:29.106Z,12.32
2022-09-18T07:54:57.186Z,7.72
2022-09-18T07:57:29.985Z,8.23
2022-09-18T08:00:12.406Z,8.57
2022-09-18T08:02:42.822Z,10.30
2022-09-18T08:05:15.270Z,11.68
2022-09-18T08:07:53.130Z,9.43
2022-09-18T08:10:35.794Z,9.18
2022-09-18T08:13:13.583Z,11.10
2022-09-18T08:15:50.845Z,9.75
2022-09-18T08:18:48.592Z,8.20
2022-09-18T08:21:33.380Z,13.98
2022-09-18T08:24:03.346Z,21.58
2022-09-18T08:26:31.270Z,12.07
2022-09-18T08:28:58.249Z,53.35
2022-09-18T08:31:26.945Z,53.50
2022-09-18T08:33:57.334Z,8.93
2022-09-18T08:36:25.146Z,10.40
2022-09-18T08:39:05.409Z,11.38
2022-09-18T08:42:32.887Z,14.13
2022-09-18T08:45:15.057Z,15.88
2022-09-18T08:47:54.712Z,26.08
2022-09-18T08:50:28.113Z,15.88
2022-09-18T08:53:03.864Z,11.88
2022-09-18T08:55:58.992Z,20.65
2022-09-18T08:58:57.855Z,19.20
2022-09-18T09:02:04.238Z,14.77
2022-09-18T09:04:31.833Z,15.68
2022-09-18T09:07:14.056Z,24.58
2022-09-18T09:09:58.023Z,34.70
2022-09-18T09:12:39.756Z,15.45
2022-09-18T09:15:28.541Z,14.80
2022-09-18T09:18:17.761Z,10.43
2022-09-18T09:20:57.029Z,7.90
2022-09-18T09:24:00.583Z,16.75
2022-09-18T09:26:49.231Z,12.38
2022-09-18T09:29:43.543Z,9.10
2022-09-18T09:32:49.192Z,30.55
2022-09-18T09:35:53.611Z,33.85
2022-09-18T09:38:32.258Z,30.02
2022-09-18T09:41:11.740Z,21.35
2022-09-18T09:43:46.110Z,16.38
2022-09-18T09:46:39.487Z,62.17
2022-09-18T09:49:24.280Z,19.45
2022-09-18T09:52:16.997Z,8.48
2022-09-18T09:54:47.879Z,8.95
2022-09-18T09:57:24.364Z,40.10
2022-09-18T10:00:12.749Z,10.02
2022-09-18T10:03:31.920Z,14.73
2022-09-18T10:06:15.655Z,15.50
2022-09-18T10:08:46.583Z,12.00
2022-09-18T10:11:16.375Z,21.48
2022-09-18T10:13:52.329Z,18.25
2022-09-18T10:16:27.221Z,22.80
2022-09-18T10:18:59.264Z,13.35
2022-09-18T10:21:37.245Z,15.88
2022-09-18T10:24:09.041Z,10.38
2022-09-18T10:26:51.530Z,9.00
2022-09-18T10:29:22.085Z,8.15
2022-09-18T10:34:49.631Z,12.27
2022-09-18T10:37:29.413Z,7.07
2022-09-18T10:40:02.348Z,6.47
2022-09-18T10:42:37.176Z,8.68
2022-09-18T10:45:33.552Z,7.82
2022-09-18T10:48:22.883Z,9.60
2022-09-18T10:51:01.773Z,50.65
2022-09-18T10:53:42.664Z,37.13
2022-09-18T10:56:21.122Z,17.52
2022-09-18T10:58:52.421Z,20.80
2022-09-18T11:01:20.691Z,13.80
2022-09-18T11:04:01.961Z,17.05
2022-09-18T11:06:35.019Z,15.23
2022-09-18T11:09:12.194Z,28.50
2022-09-18T11:11:46.506Z,26.15
2022-09-18T11:14:32.221Z,24.08
2022-09-18T11:17:04.559Z,12.90
2022-09-18T11:19:42.005Z,15.15
2022-09-18T11:22:41.679Z,22.25
2022-09-18T11:25:27.326Z,32.55
2022-09-18T11:28:28.957Z,21.02
2022-09-18T11:31:26.434Z,13.55
2022-09-18T11:34:01.853Z,21.83
2022-09-18T11:36:40.959Z,19.80
2022-09-18T11:39:22.574Z,13.93
2022-09-18T11:41:54.473Z,15.93
2022-09-18T11:44:34.340Z,14.80
2022-09-18T11:47:34.616Z,22.58
2022-09-18T11:50:23.888Z,21.73
2022-09-18T11:52:56.073Z,13.48
2022-09-18T11:55:52.760Z,11.40
2022-09-18T11:58:20.471Z,21.85
2022-09-18T12:00:59.890Z,25.23
2022-09-18T12:03:35.049Z,16.58
2022-09-18T12:06:08.826Z,17.50
2022-09-18T12:08:40.556Z,33.58
2022-09-18T12:14:04.319Z,17.27
2022-09-18T12:17:00.980Z,21.73
2022-09-18T12:19:49.376Z,21.38
2022-09-18T12:22:31.401Z,25.55
2022-09-18T12:24:58.936Z,26.38
2022-09-18T12:28:30.761Z,38.50
2022-09-18T12:31:03.814Z,32.47
2022-09-18T12:33:34.417Z,22.67
2022-09-18T12:36:04.933Z,32.85
2022-09-18T12:39:02.549Z,25.67
2022-09-18T12:41:38.440Z,18.30
2022-09-18T12:44:59.099Z,11.75
2022-09-18T12:47:45.131Z,11.52
2022-09-18T12:50:12.180Z,13.35
2022-09-18T12:53:08.474Z,15.20
2022-09-18T12:56:03.845Z,10.98
2022-09-18T12:58:43.632Z,12.48
2022-09-18T13:01:23.288Z,45.55
2022-09-18T13:03:52.659Z,33.72
2022-09-18T13:06:33.244Z,47.00
2022-09-18T13:09:10.700Z,49.47
2022-09-18T13:11:58.745Z,25.23
2022-09-18T13:14:42.300Z,42.78
2022-09-18T13:17:17.896Z,43.50
2022-09-18T13:20:26.431Z,28.38
2022-09-18T13:22:54.633Z,22.60
2022-09-18T13:25:35.742Z,15.82
2022-09-18T13:28:10.802Z,13.35
2022-09-18T13:30:38.607Z,13.55
2022-09-18T13:33:05.793Z,14.55
2022-09-18T13:35:35.511Z,18.02
2022-09-18T13:38:08.806Z,16.38
2022-09-18T13:40:39.222Z,23.90
2022-09-18T13:43:27.526Z,12.45
2022-09-18T13:45:56.395Z,10.98
2022-09-18T13:48:40.105Z,15.82
2022-09-18T13:51:17.730Z,18.50
2022-09-18T13:53:45.239Z,18.30
2022-09-18T13:56:16.982Z,16.85
2022-09-18T13:58:54.366Z,16.75
2022-09-18T14:02:00.048Z,13.98
2022-09-18T14:04:39.223Z,25.10
2022-09-18T14:07:18.440Z,12.85
2022-09-18T14:10:04.281Z,27.08
2022-09-18T14:12:34.528Z,40.78
2022-09-18T14:15:01.850Z,26.60
2022-09-18T14:17:30.685Z,32.20
2022-09-18T14:20:18.331Z,24.05
2022-09-18T14:22:45.411Z,28.17
2022-09-18T14:25:14.434Z,23.25
2022-09-18T14:27:49.900Z,22.02
2022-09-18T14:30:19.072Z,21.50
2022-09-18T14:33:14.383Z,22.23
2022-09-18T14:36:00.526Z,18.95
2022-09-18T14:38:32.629Z,17.67
2022-09-18T14:41:19.336Z,19.67
2022-09-18T14:44:00.281Z,30.98
2022-09-18T14:46:28.407Z,34.97
2022-09-18T14:48:55.632Z,28.52
2022-09-18T14:51:26.605Z,31.90
2022-09-18T14:53:56.140Z,34.47
2022-09-18T14:56:34.792Z,16.17
2022-09-18T14:59:08.571Z,28.58
2022-09-18T15:01:38.594Z,31.42
2022-09-18T15:04:12.207Z,42.03
2022-09-18T15:06:49.819Z,33.50
2022-09-18T15:09:25.777Z,28.75
2022-09-18T15:12:02.129Z,18.00
2022-09-18T15:14:41.862Z,23.58
2022-09-18T15:17:18.987Z,24.63
2022-09-18T15:20:16.018Z,16.25
2022-09-18T15:22:43.560Z,21.98
2022-09-18T15:25:19.014Z,23.73
2022-09-18T15:27:47.089Z,23.48
2022-09-18T15:30:20.005Z,28.92
2022-09-18T15:32:58.707Z,51.83
2022-09-18T15:35:29.515Z,26.08
2022-09-18T15:38:03.755Z,18.13
2022-09-18T15:40:34.875Z,14.27
2022-09-18T15:43:04.775Z,13.93
2022-09-18T15:45:39.853Z,12.63
2022-09-18T15:48:34.543Z,11.65
2022-09-18T15:51:29.501Z,12.68
2022-09-18T15:54:12.255Z,14.30
2022-09-18T15:56:51.994Z,93.47
2022-09-18T15:59:30.842Z,12.35
2022-09-18T16:01:59.280Z,12.40
2022-09-18T16:04:32.964Z,17.00
2022-09-18T16:07:25.958Z,10.85
2022-09-18T16:09:53.429Z,16.52
2022-09-18T16:12:32.104Z,12.23
2022-09-18T16:15:11.023Z,12.70
2022-09-18T16:17:51.383Z,13.48
2022-09-18T16:20:32.948Z,11.27
2022-09-18T16:23:28.527Z,14.40
2022-09-18T16:26:04.181Z,36.63
2022-09-18T16:28:36.893Z,92.38
2022-09-18T16:31:04.022Z,26.40
2022-09-18T16:33:34.505Z,33.78
2022-09-18T16:36:13.037Z,55.58
2022-09-18T16:38:39.991Z,116.03
2022-09-18T16:41:09.638Z,93.70
2022-09-18T16:43:36.737Z,23.38
2022-09-18T16:46:03.703Z,17.60
2022-09-18T16:48:31.627Z,17.70
2022-09-18T16:50:58.689Z,45.15
2022-09-18T16:53:25.842Z,108.32
2022-09-18T16:55:56.153Z,227.98
2022-09-18T16:58:25.699Z,92.00
2022-09-18T17:00:53.090Z,65.65
2022-09-18T17:03:20.348Z,69.47
2022-09-18T17:05:47.556Z,35.05
2022-09-18T17:08:14.677Z,33.90
2022-09-18T17:10:45.186Z,30.98
2022-09-18T17:13:16.101Z,21.52
2022-09-18T17:15:43.173Z,35.17
2022-09-18T17:18:10.246Z,23.80
2022-09-18T17:20:37.745Z,16.25
2022-09-18T17:23:05.021Z,31.85
2022-09-18T17:25:32.107Z,48.05
2022-09-18T17:27:59.336Z,30.90
2022-09-18T17:30:26.787Z,23.55
2022-09-18T17:32:54.072Z,15.25
2022-09-18T17:35:21.713Z,28.30
2022-09-18T17:37:51.715Z,23.15
2022-09-18T17:40:21.777Z,32.33
2022-09-18T17:42:49.125Z,29.67
2022-09-18T17:45:16.254Z,36.58
2022-09-18T17:47:43.322Z,36.80
2022-09-18T17:50:10.673Z,44.72
2022-09-18T17:52:38.847Z,40.67
2022-09-18T17:55:07.145Z,40.45
2022-09-18T17:57:35.639Z,39.85
2022-09-18T18:00:03.475Z,38.22
2022-09-18T18:02:40.077Z,41.75
2022-09-18T18:05:07.419Z,21.10
2022-09-18T18:07:34.431Z,49.15
2022-09-18T18:10:02.483Z,46.78
2022-09-18T18:12:29.595Z,39.58
2022-09-18T18:14:56.991Z,47.67
2022-09-18T18:17:24.635Z,41.67
2022-09-18T18:19:51.689Z,38.38
2022-09-18T18:22:19.068Z,33.58
2022-09-18T18:24:48.463Z,45.58
2022-09-18T18:27:17.068Z,35.97
2022-09-18T18:29:45.501Z,35.28
2022-09-18T18:32:13.807Z,34.05
2022-09-18T18:34:43.820Z,58.42
2022-09-18T18:37:11.163Z,50.08
2022-09-18T18:39:38.671Z,40.30
2022-09-18T18:42:05.926Z,32.35
2022-09-18T18:44:33.049Z,49.83
2022-09-18T18:47:01.677Z,21.67
2022-09-18T18:49:29.145Z,46.83
2022-09-18T18:51:58.217Z,55.53
2022-09-18T18:54:25.475Z,23.25
2022-09-18T18:56:52.577Z,20.83
2022-09-18T18:59:22.280Z,16.83
2022-09-18T19:01:50.251Z,29.85
2022-09-18T19:04:21.384Z,30.67
2022-09-18T19:06:49.464Z,34.97
2022-09-18T19:09:22.369Z,51.40
2022-09-18T19:11:52.445Z,45.60
2022-09-18T19:14:25.921Z,38.05
2022-09-18T19:16:54.187Z,43.40
2022-09-18T19:19:23.753Z,34.45
2022-09-18T19:21:52.040Z,39.38
2022-09-18T19:24:19.256Z,23.33
2022-09-18T19:26:48.156Z,21.85
2022-09-18T19:29:17.921Z,15.82
2022-09-18T19:31:46.131Z,18.65
2022-09-18T19:34:15.749Z,13.95
2022-09-18T19:36:46.682Z,13.65
2022-09-18T19:39:14.015Z,12.27
2022-09-18T19:41:44.323Z,13.88
2022-09-18T19:44:43.135Z,19.83
2022-09-18T19:47:41.721Z,16.15
2022-09-18T19:50:21.798Z,11.50
2022-09-18T19:52:51.371Z,11.27
2022-09-18T19:55:23.106Z,12.40
2022-09-18T19:57:56.354Z,11.98
2022-09-18T20:00:25.036Z,16.02
2022-09-18T20:02:52.831Z,15.23
2022-09-18T20:05:19.887Z,14.77
2022-09-18T20:07:49.614Z,15.60
2022-09-18T20:10:17.620Z,9.27
2022-09-18T20:12:44.688Z,10.20
2022-09-18T20:15:14.808Z,12.13
2022-09-18T20:17:42.104Z,6.25
2022-09-18T20:20:11.509Z,8.30
2022-09-18T20:22:40.297Z,6.72
2022-09-18T20:25:11.023Z,9.20
2022-09-18T20:27:41.080Z,6.03
2022-09-18T20:30:11.135Z,6.95
2022-09-18T20:32:38.548Z,6.90
2022-09-18T20:35:06.121Z,7.35
2022-09-18T20:37:33.371Z,9.30
2022-09-18T20:40:04.001Z,8.55
2022-09-18T20:42:31.966Z,8.13
2022-09-18T20:45:02.448Z,4.15
2022-09-18T20:47:35.274Z,6.10
2022-09-18T20:50:11.605Z,6.43
2022-09-18T20:52:42.951Z,5.90
2022-09-18T20:55:15.822Z,7.80
2022-09-18T20:57:46.387Z,8.30
2022-09-18T21:00:16.273Z,4.78
2022-09-18T21:02:45.959Z,5.60
2022-09-18T21:05:14.717Z,6.45
2022-09-18T21:07:45.741Z,9.00
2022-09-18T21:10:13.923Z,5.13
2022-09-18T21:12:40.998Z,5.45
2022-09-18T21:15:15.282Z,6.60
2022-09-18T21:17:42.928Z,7.30
2022-09-18T21:20:10.809Z,5.53
2022-09-18T21:22:57.798Z,6.88
2022-09-18T21:25:32.291Z,7.28
2022-09-18T21:27:59.292Z,21.30
2022-09-18T21:30:26.708Z,26.42
2022-09-18T21:32:55.784Z,31.73
2022-09-18T21:35:22.945Z,30.02
2022-09-18T21:37:50.095Z,34.55
2022-09-18T21:40:17.325Z,13.02
2022-09-18T21:42:47.545Z,8.85
2022-09-18T21:45:20.682Z,28.38
2022-09-18T21:47:50.024Z,33.40
2022-09-18T21:50:17.005Z,17.23
2022-09-18T21:52:46.761Z,11.85
2022-09-18T21:55:14.036Z,12.25
2022-09-18T21:57:41.229Z,12.43
2022-09-18T22:00:09.694Z,10.35
2022-09-18T22:02:43.302Z,10.98
2022-09-18T22:05:12.173Z,10.77
2022-09-18T22:07:39.311Z,14.02
2022-09-18T22:10:07.381Z,13.77
2022-09-18T22:12:35.451Z,13.90
2022-09-18T22:15:02.418Z,12.82
2022-09-18T22:17:31.028Z,12.43
2022-09-18T22:19:58.020Z,11.27
2022-09-18T22:22:25.892Z,9.85
2022-09-18T22:24:53.158Z,11.75
2022-09-18T22:27:20.120Z,9.98
2022-09-18T22:29:47.129Z,11.75
2022-09-18T22:32:14.348Z,10.55
2022-09-18T22:34:41.676Z,8.02
2022-09-18T22:37:10.422Z,6.40
2022-09-18T22:39:37.805Z,5.78
2022-09-18T22:42:04.873Z,9.15
2022-09-18T22:44:31.921Z,9.43
2022-09-18T22:46:59.180Z,8.57
2022-09-18T22:49:26.182Z,5.57
2022-09-18T22:51:53.243Z,6.97
2022-09-18T22:54:27.641Z,7.68
2022-09-18T22:56:56.880Z,7.22
2022-09-18T22:59:26.228Z,7.60
2022-09-18T23:02:02.349Z,7.90
2022-09-18T23:04:31.744Z,6.85
2022-09-18T23:06:59.379Z,7.00
2022-09-18T23:09:27.371Z,6.32
2022-09-18T23:11:55.049Z,8.75
2022-09-18T23:14:26.031Z,9.52
2022-09-18T23:16:53.528Z,10.65
2022-09-18T23:19:23.684Z,9.93
2022-09-18T23:21:50.836Z,13.95
2022-09-18T23:24:18.213Z,8.05
2022-09-18T23:26:47.365Z,8.13
2022-09-18T23:29:17.327Z,8.48
2022-09-18T23:31:46.570Z,9.48
2022-09-18T23:34:16.590Z,10.95
2022-09-18T23:36:46.105Z,7.90
2022-09-18T23:39:18.935Z,8.38
2022-09-18T23:41:46.497Z,8.70
2022-09-18T23:44:15.032Z,5.55
2022-09-18T23:46:43.126Z,9.80
2022-09-18T23:49:12.263Z,8.02
2022-09-18T23:51:42.728Z,10.75
2022-09-18T23:54:17.833Z,5.90
2022-09-18T23:56:45.537Z,8.20
2022-09-18T23:59:14.012Z,8.45
